createdAt,value
2022-10-18T00:02:25.099Z,94220.47
2022-10-18T00:04:54.409Z,94220.41
2022-10-18T00:07:23.751Z,94226.56
2022-10-18T00:09:53.186Z,94221.56
2022-10-18T00:12:22.460Z,94218.25
2022-10-18T00:14:52.319Z,94212.22
2022-10-18T00:17:21.565Z,94219.94
2022-10-18T00:19:52.467Z,94213.19
2022-10-18T00:22:21.880Z,94207.88
2022-10-18T00:24:51.285Z,94206.00
2022-10-18T00:27:20.802Z,94207.63
2022-10-18T00:29:51.415Z,94204.88
2022-10-18T00:32:20.689Z,94199.03
2022-10-18T00:34:51.607Z,94196.69
2022-10-18T00:37:21.749Z,94193.38
2022-10-18T00:42:29.692Z,94193.59
2022-10-18T00:45:22.128Z,94180.75
2022-10-18T00:47:56.952Z,94179.97
2022-10-18T00:51:37.987Z,94187.91
2022-10-18T00:54:07.664Z,94183.75
2022-10-18T00:56:37.570Z,94183.88
2022-10-18T00:59:07.031Z,94182.25
2022-10-18T01:01:36.434Z,94178.81
2022-10-18T01:04:06.428Z,94182.19
2022-10-18T01:06:50.152Z,94178.59
2022-10-18T01:09:30.147Z,94169.03
2022-10-18T01:12:23.506Z,94170.75
2022-10-18T01:14:56.020Z,94168.13
2022-10-18T01:17:37.793Z,94157.03
2022-10-18T01:20:48.733Z,94160.69
2022-10-18T01:23:33.087Z,94150.47
2022-10-18T01:26:19.728Z,94155.63
2022-10-18T01:29:01.122Z,94154.00
2022-10-18T01:31:38.386Z,94143.69
2022-10-18T01:34:11.436Z,94155.72
2022-10-18T01:36:44.137Z,94144.78
2022-10-18T01:39:18.448Z,94147.34
2022-10-18T01:41:50.689Z,94134.19
2022-10-18T01:44:25.043Z,94134.22
2022-10-18T01:46:58.548Z,94132.28
2022-10-18T01:49:28.847Z,94129.75
2022-10-18T01:51:58.391Z,94131.66
2022-10-18T01:54:34.984Z,94133.59
2022-10-18T01:57:09.505Z,94136.38
2022-10-18T01:59:56.329Z,94130.34
2022-10-18T02:02:42.171Z,94123.53
2022-10-18T02:05:24.444Z,94125.16
2022-10-18T02:08:12.394Z,94129.44
2022-10-18T02:10:55.923Z,94123.63
2022-10-18T02:13:31.608Z,94129.53
2022-10-18T02:16:08.432Z,94124.19
2022-10-18T02:18:43.261Z,94127.47
2022-10-18T02:21:17.039Z,94123.22
2022-10-18T02:23:48.349Z,94135.31
2022-10-18T02:26:18.765Z,94119.88
2022-10-18T02:28:48.428Z,94126.13
2022-10-18T02:31:26.539Z,94125.53
2022-10-18T02:34:02.151Z,94124.75
2022-10-18T02:36:36.508Z,94124.78
2022-10-18T02:39:09.444Z,94123.94
2022-10-18T02:41:38.862Z,94126.59
2022-10-18T02:44:08.229Z,94125.84
2022-10-18T02:46:38.037Z,94131.88
2022-10-18T02:49:08.749Z,94128.53
2022-10-18T02:51:38.150Z,94125.13
2022-10-18T02:54:08.665Z,94133.72
2022-10-18T02:56:38.113Z,94129.34
2022-10-18T02:59:07.811Z,94136.13
2022-10-18T03:01:37.565Z,94137.75
2022-10-18T03:04:08.905Z,94131.81
2022-10-18T03:06:38.325Z,94138.69
2022-10-18T03:09:08.769Z,94145.56
2022-10-18T03:11:38.106Z,94138.78
2022-10-18T03:14:07.445Z,94136.22
2022-10-18T03:16:36.695Z,94136.22
2022-10-18T03:19:07.593Z,94136.13
2022-10-18T03:21:36.908Z,94135.28
2022-10-18T03:24:07.489Z,94137.84
2022-10-18T03:26:36.913Z,94141.13
2022-10-18T03:29:06.524Z,94136.78
2022-10-18T03:31:35.979Z,94140.13
2022-10-18T03:34:05.464Z,94147.50
2022-10-18T03:36:36.370Z,94143.69
2022-10-18T03:39:05.865Z,94134.91
2022-10-18T03:41:35.126Z,94133.06
2022-10-18T03:44:04.627Z,94136.38
2022-10-18T03:46:33.883Z,94134.53
2022-10-18T03:52:33.527Z,94132.28
2022-10-18T03:55:03.230Z,94139.84
2022-10-18T03:57:32.498Z,94136.97
2022-10-18T04:00:02.016Z,94139.38
2022-10-18T04:02:31.478Z,94142.69
2022-10-18T04:05:01.359Z,94145.28
2022-10-18T04:07:32.171Z,94144.47
2022-10-18T04:10:01.650Z,94140.84
2022-10-18T04:12:31.331Z,94133.56
2022-10-18T04:15:01.124Z,94130.84
2022-10-18T04:17:30.791Z,94133.63
2022-10-18T04:20:00.292Z,94128.53
2022-10-18T04:22:31.427Z,94123.09
2022-10-18T04:25:00.952Z,94128.75
2022-10-18T04:27:30.451Z,94132.41
2022-10-18T04:30:00.029Z,94125.63
2022-10-18T04:32:29.632Z,94126.16
2022-10-18T04:34:58.969Z,94125.00
2022-10-18T04:37:28.386Z,94120.72
2022-10-18T04:39:59.226Z,94128.25
2022-10-18T04:42:28.709Z,94123.44
2022-10-18T04:44:58.032Z,94124.56
2022-10-18T04:47:27.486Z,94123.06
2022-10-18T04:49:56.874Z,94116.38
2022-10-18T04:52:26.206Z,94120.00
2022-10-18T04:54:56.725Z,94118.50
2022-10-18T04:57:27.454Z,94125.16
2022-10-18T04:59:56.807Z,94131.13
2022-10-18T05:02:26.286Z,94134.38
2022-10-18T05:04:55.639Z,94132.53
2022-10-18T05:07:25.572Z,94134.84
2022-10-18T05:09:54.944Z,94129.53
2022-10-18T05:12:25.690Z,94132.16
2022-10-18T05:14:56.796Z,94132.13
2022-10-18T05:17:26.317Z,94124.31
2022-10-18T05:19:55.646Z,94125.22
2022-10-18T05:22:24.925Z,94130.06
2022-10-18T05:24:54.227Z,94124.69
2022-10-18T05:27:23.730Z,94124.44
2022-10-18T05:29:54.508Z,94124.28
2022-10-18T05:32:23.934Z,94129.16
2022-10-18T05:34:53.201Z,94126.16
2022-10-18T05:37:26.115Z,94121.56
2022-10-18T05:39:57.591Z,94132.38
2022-10-18T05:42:26.957Z,94129.50
2022-10-18T05:44:57.665Z,94124.84
2022-10-18T05:47:27.224Z,94124.31
2022-10-18T05:49:56.647Z,94125.63
2022-10-18T05:52:26.469Z,94124.31
2022-10-18T05:54:55.946Z,94136.91
2022-10-18T05:57:25.246Z,94134.03
2022-10-18T05:59:54.689Z,94137.84
2022-10-18T06:02:25.459Z,94139.75
2022-10-18T06:04:54.926Z,94140.19
2022-10-18T06:07:24.548Z,94138.94
2022-10-18T06:09:53.798Z,94135.75
2022-10-18T06:12:23.070Z,94133.41
2022-10-18T06:14:52.349Z,94131.88
2022-10-18T06:17:21.815Z,94133.00
2022-10-18T06:19:52.598Z,94135.03
2022-10-18T06:22:22.029Z,94124.78
2022-10-18T06:24:56.444Z,94129.94
2022-10-18T06:27:26.753Z,94131.53
2022-10-18T06:29:56.046Z,94122.56
2022-10-18T06:32:25.294Z,94117.34
2022-10-18T06:34:56.010Z,94123.28
2022-10-18T06:37:25.600Z,94116.91
2022-10-18T06:39:55.188Z,94118.22
2022-10-18T06:42:24.608Z,94113.53
2022-10-18T06:44:54.088Z,94115.78
2022-10-18T06:47:23.313Z,94121.59
2022-10-18T06:52:33.572Z,94114.78
2022-10-18T06:55:07.168Z,94108.72
2022-10-18T06:57:38.528Z,94100.91
2022-10-18T07:00:09.418Z,94106.34
2022-10-18T07:02:41.425Z,94100.31
2022-10-18T07:05:12.446Z,94100.13
2022-10-18T07:07:43.405Z,94099.91
2022-10-18T07:10:13.266Z,94096.22
2022-10-18T07:12:42.713Z,94092.59
2022-10-18T07:15:13.149Z,94094.19
2022-10-18T07:17:42.723Z,94098.28
2022-10-18T07:20:13.043Z,94085.00
2022-10-18T07:22:43.737Z,94092.66
2022-10-18T07:25:13.157Z,94100.19
2022-10-18T07:27:44.467Z,94100.50
2022-10-18T07:30:14.164Z,94092.09
2022-10-18T07:32:43.414Z,94091.63
2022-10-18T07:35:12.799Z,94089.88
2022-10-18T07:37:43.489Z,94095.19
2022-10-18T07:40:14.317Z,94092.69
2022-10-18T07:42:43.664Z,94084.97
2022-10-18T07:45:13.956Z,94083.56
2022-10-18T07:47:43.264Z,94078.44
2022-10-18T07:50:12.684Z,94075.19
2022-10-18T07:52:43.446Z,94078.53
2022-10-18T07:55:12.695Z,94085.13
2022-10-18T07:57:42.062Z,94075.06
2022-10-18T08:00:13.466Z,94071.03
2022-10-18T08:02:42.838Z,94072.53
2022-10-18T08:05:12.369Z,94059.50
2022-10-18T08:07:43.066Z,94062.91
2022-10-18T08:10:12.667Z,94065.72
2022-10-18T08:12:41.967Z,94073.56
2022-10-18T08:15:12.474Z,94066.00
2022-10-18T08:17:43.768Z,94061.66
2022-10-18T08:20:29.852Z,94064.69
2022-10-18T08:23:01.904Z,94063.72
2022-10-18T08:25:32.206Z,94059.44
2022-10-18T08:28:02.190Z,94053.22
2022-10-18T08:30:31.434Z,94048.91
2022-10-18T08:33:00.853Z,94047.47
2022-10-18T08:35:30.145Z,94046.28
2022-10-18T08:38:01.050Z,94048.09
2022-10-18T08:40:32.593Z,94044.59
2022-10-18T08:43:10.110Z,94040.28
2022-10-18T08:45:43.216Z,94040.75
2022-10-18T08:48:23.306Z,94039.09
2022-10-18T08:50:54.560Z,94037.13
2022-10-18T08:53:37.599Z,94042.53
2022-10-18T08:56:15.099Z,94035.91
2022-10-18T08:58:46.148Z,94033.25
2022-10-18T09:01:34.020Z,94030.09
2022-10-18T09:04:31.690Z,94034.13
2022-10-18T09:07:25.744Z,94025.72
2022-10-18T09:10:06.795Z,94025.81
2022-10-18T09:12:59.038Z,94024.81
2022-10-18T09:15:41.702Z,94023.94
2022-10-18T09:18:20.683Z,94018.78
2022-10-18T09:20:57.193Z,94016.63
2022-10-18T09:23:40.728Z,94021.28
2022-10-18T09:26:18.047Z,94026.88
2022-10-18T09:29:02.617Z,94008.16
2022-10-18T09:31:48.297Z,94012.69
2022-10-18T09:34:29.387Z,94011.66
2022-10-18T09:36:59.120Z,94010.44
2022-10-18T09:39:34.142Z,94001.66
2022-10-18T09:42:09.151Z,94000.59
2022-10-18T09:44:43.413Z,93995.19
2022-10-18T09:47:18.151Z,93987.00
2022-10-18T09:52:42.944Z,93983.56
2022-10-18T09:55:21.174Z,93983.34
2022-10-18T09:57:55.613Z,93972.47
2022-10-18T10:00:29.867Z,93962.59
2022-10-18T10:02:59.874Z,93963.47
2022-10-18T10:05:29.307Z,93954.41
2022-10-18T10:08:03.441Z,93949.47
2022-10-18T10:10:35.295Z,93941.31
2022-10-18T10:13:08.630Z,93937.34
2022-10-18T10:15:42.435Z,93931.97
2022-10-18T10:18:22.542Z,93929.06
2022-10-18T10:20:55.127Z,93923.53
2022-10-18T10:23:29.586Z,93923.53
2022-10-18T10:26:03.010Z,93918.84
2022-10-18T10:28:36.622Z,93910.31
2022-10-18T10:31:28.392Z,93915.22
2022-10-18T10:34:03.479Z,93910.78
2022-10-18T10:36:35.291Z,93907.44
2022-10-18T10:39:14.046Z,93902.53
2022-10-18T10:41:44.353Z,93902.66
2022-10-18T10:44:19.611Z,93898.78
2022-10-18T10:46:51.936Z,93895.31
2022-10-18T10:52:27.315Z,93885.97
2022-10-18T10:55:06.152Z,93882.38
2022-10-18T10:57:49.079Z,93876.66
2022-10-18T11:00:47.289Z,93869.75
2022-10-18T11:03:34.304Z,93868.13
2022-10-18T11:06:03.790Z,93870.69
2022-10-18T11:08:40.667Z,93852.78
2022-10-18T11:11:23.305Z,93849.19
2022-10-18T11:24:31.876Z,93812.88
2022-10-18T11:27:07.829Z,93818.19
2022-10-18T11:30:04.143Z,93810.00
2022-10-18T11:32:42.715Z,93803.13
2022-10-18T11:35:35.585Z,93804.84
2022-10-18T11:38:21.746Z,93801.47
2022-10-18T11:41:15.909Z,93794.63
2022-10-18T11:44:02.797Z,93792.41
2022-10-18T11:46:56.027Z,93786.00
2022-10-18T11:49:45.905Z,93781.41
2022-10-18T11:52:23.868Z,93784.47
2022-10-18T11:55:21.145Z,93783.66
2022-10-18T11:58:01.108Z,93775.03
2022-10-18T12:00:50.057Z,93774.59
2022-10-18T12:03:44.074Z,93771.75
2022-10-18T12:06:19.886Z,93766.97
2022-10-18T12:08:54.307Z,93761.38
2022-10-18T12:11:28.631Z,93769.22
2022-10-18T12:14:03.923Z,93762.53
2022-10-18T12:16:51.135Z,93760.72
2022-10-18T12:19:27.033Z,93758.19
2022-10-18T12:21:59.886Z,93755.75
2022-10-18T12:24:33.284Z,93749.91
2022-10-18T12:27:03.951Z,93755.56
2022-10-18T12:29:41.368Z,93750.97
2022-10-18T12:32:15.077Z,93747.06
2022-10-18T12:34:48.345Z,93741.06
2022-10-18T12:38:00.134Z,93737.59
2022-10-18T12:40:39.444Z,93733.31
2022-10-18T12:43:18.493Z,93738.31
2022-10-18T12:45:56.173Z,93729.75
2022-10-18T12:48:38.912Z,93738.63
2022-10-18T12:52:37.244Z,93732.47
2022-10-18T12:55:31.033Z,93734.19
2022-10-18T12:58:28.351Z,93732.72
2022-10-18T13:01:09.804Z,93728.75
2022-10-18T13:04:00.035Z,93718.91
2022-10-18T13:07:14.060Z,93716.91
2022-10-18T13:10:42.192Z,93723.78
2022-10-18T13:13:42.173Z,93723.09
2022-10-18T13:16:29.128Z,93722.06
2022-10-18T13:19:03.877Z,93720.19
2022-10-18T13:21:47.647Z,93716.97
2022-10-18T13:24:28.401Z,93718.16
2022-10-18T13:27:42.673Z,93708.22
2022-10-18T13:30:45.271Z,93710.19
2022-10-18T13:33:39.882Z,93717.75
2022-10-18T13:36:26.307Z,93705.41
2022-10-18T13:39:06.408Z,93705.44
2022-10-18T13:42:32.308Z,93700.41
2022-10-18T13:46:00.113Z,93698.28
2022-10-18T13:48:50.011Z,93697.06
2022-10-18T13:51:49.596Z,93695.28
2022-10-18T13:54:45.912Z,93706.16
2022-10-18T13:57:36.406Z,93698.63
2022-10-18T14:00:49.130Z,93702.56
2022-10-18T14:04:00.183Z,93700.16
2022-10-18T14:06:35.124Z,93691.50
2022-10-18T14:09:19.378Z,93690.69
2022-10-18T14:12:09.183Z,93688.03
2022-10-18T14:14:45.653Z,93680.88
2022-10-18T14:17:28.932Z,93679.28
2022-10-18T14:20:06.665Z,93676.63
2022-10-18T14:22:44.087Z,93679.72
2022-10-18T14:25:24.777Z,93677.88
2022-10-18T14:28:13.005Z,93668.78
2022-10-18T14:31:02.290Z,93670.03
2022-10-18T14:33:38.037Z,93664.72
2022-10-18T14:36:15.364Z,93659.19
2022-10-18T14:38:52.825Z,93658.28
2022-10-18T14:41:26.266Z,93654.78
2022-10-18T14:44:17.852Z,93654.59
2022-10-18T14:46:51.041Z,93657.00
2022-10-18T14:49:23.265Z,93650.53
2022-10-18T14:51:56.306Z,93651.91
2022-10-18T14:54:31.942Z,93647.41
2022-10-18T14:57:03.873Z,93649.13
2022-10-18T14:59:46.266Z,93650.69
2022-10-18T15:02:21.713Z,93653.25
2022-10-18T15:05:00.374Z,93654.09
2022-10-18T15:07:32.423Z,93652.09
2022-10-18T15:10:05.866Z,93648.31
2022-10-18T15:13:04.348Z,93654.91
2022-10-18T15:15:31.070Z,93654.69
2022-10-18T15:18:05.698Z,93652.78
2022-10-18T15:20:42.995Z,93645.97
2022-10-18T15:23:27.386Z,93646.88
2022-10-18T15:26:07.468Z,93647.84
2022-10-18T15:28:50.092Z,93648.56
2022-10-18T15:31:26.664Z,93645.78
2022-10-18T15:34:13.147Z,93647.41
2022-10-18T15:39:22.188Z,93645.88
2022-10-18T15:41:55.392Z,93641.81
2022-10-18T15:44:31.865Z,93646.66
2022-10-18T15:47:21.631Z,93649.09
2022-10-18T15:52:40.032Z,93650.56
2022-10-18T15:55:57.726Z,93651.22
2022-10-18T15:58:29.705Z,93651.84
2022-10-18T16:01:02.304Z,93651.25
2022-10-18T16:03:32.808Z,93652.75
2022-10-18T16:06:07.479Z,93651.19
2022-10-18T16:08:42.535Z,93656.16
2022-10-18T16:11:17.917Z,93655.06
2022-10-18T16:13:48.907Z,93654.75
2022-10-18T16:16:21.266Z,93655.19
2022-10-18T16:18:51.351Z,93654.34
2022-10-18T16:21:25.718Z,93648.72
2022-10-18T16:23:57.012Z,93659.91
2022-10-18T16:26:27.425Z,93657.22
2022-10-18T16:28:58.248Z,93655.97
2022-10-18T16:31:31.606Z,93660.63
2022-10-18T16:34:02.202Z,93659.97
2022-10-18T16:36:34.605Z,93664.81
2022-10-18T16:39:09.505Z,93660.94
2022-10-18T16:41:38.795Z,93669.00
2022-10-18T16:44:08.178Z,93670.41
2022-10-18T16:46:38.724Z,93663.63
2022-10-18T16:49:08.558Z,93659.06
2022-10-18T16:51:37.930Z,93665.88
2022-10-18T16:54:08.764Z,93664.34
2022-10-18T16:56:38.235Z,93664.22
2022-10-18T16:59:07.790Z,93668.03
2022-10-18T17:01:37.269Z,93661.75
2022-10-18T17:04:06.985Z,93661.06
2022-10-18T17:06:36.334Z,93662.22
2022-10-18T17:09:07.372Z,93656.19
2022-10-18T17:11:36.993Z,93660.69
2022-10-18T17:14:06.665Z,93660.22
2022-10-18T17:16:39.199Z,93656.94
2022-10-18T17:19:09.724Z,93662.78
2022-10-18T17:21:39.473Z,93657.09
2022-10-18T17:24:10.506Z,93653.72
2022-10-18T17:26:39.907Z,93659.09
2022-10-18T17:29:10.339Z,93652.56
2022-10-18T17:31:39.865Z,93652.16
2022-10-18T17:34:09.204Z,93656.66
2022-10-18T17:36:38.792Z,93652.44
2022-10-18T17:39:10.305Z,93644.88
2022-10-18T17:41:40.005Z,93648.03
2022-10-18T17:44:09.460Z,93641.94
2022-10-18T17:46:40.021Z,93642.03
2022-10-18T17:49:09.565Z,93643.28
2022-10-18T17:51:38.904Z,93643.59
2022-10-18T17:54:09.976Z,93642.72
2022-10-18T17:56:39.504Z,93638.75
2022-10-18T17:59:08.965Z,93635.44
2022-10-18T18:01:38.450Z,93638.25
2022-10-18T18:04:08.271Z,93643.44
2022-10-18T18:06:39.599Z,93635.94
2022-10-18T18:09:12.788Z,93634.44
2022-10-18T18:11:44.824Z,93631.16
2022-10-18T18:14:16.414Z,93628.72
2022-10-18T18:16:48.794Z,93626.25
2022-10-18T18:19:19.412Z,93625.41
2022-10-18T18:21:49.385Z,93624.78
2022-10-18T18:24:24.865Z,93618.97
2022-10-18T18:26:54.946Z,93623.06
2022-10-18T18:29:25.965Z,93621.34
2022-10-18T18:31:56.010Z,93624.84
2022-10-18T18:34:25.685Z,93618.88
2022-10-18T18:36:55.045Z,93622.53
2022-10-18T18:39:29.708Z,93611.56
2022-10-18T18:41:59.214Z,93604.84
2022-10-18T18:44:28.727Z,93605.13
2022-10-18T18:46:59.065Z,93604.53
2022-10-18T18:52:33.283Z,93603.06
2022-10-18T18:55:02.945Z,93608.06
2022-10-18T18:57:32.514Z,93610.84
2022-10-18T19:00:02.438Z,93612.16
2022-10-18T19:02:31.862Z,93605.66
2022-10-18T19:05:01.248Z,93608.22
2022-10-18T19:07:32.656Z,93601.47
2022-10-18T19:10:02.190Z,93599.94
2022-10-18T19:12:31.606Z,93598.19
2022-10-18T19:15:00.964Z,93598.28
2022-10-18T19:17:30.479Z,93595.19
2022-10-18T19:20:01.411Z,93594.44
2022-10-18T19:22:32.371Z,93589.31
2022-10-18T19:25:01.745Z,93583.47
2022-10-18T19:27:31.369Z,93583.47
2022-10-18T19:30:01.084Z,93588.94
2022-10-18T19:32:30.488Z,93577.22
2022-10-18T19:34:59.845Z,93579.81
2022-10-18T19:37:29.279Z,93575.47
2022-10-18T19:40:00.142Z,93574.03
2022-10-18T19:42:31.469Z,93576.69
2022-10-18T19:45:01.240Z,93580.19
2022-10-18T19:47:30.646Z,93571.63
2022-10-18T19:49:59.905Z,93567.97
2022-10-18T19:52:30.358Z,93570.47
2022-10-18T19:55:01.385Z,93560.63
2022-10-18T19:57:30.749Z,93571.28
2022-10-18T20:00:01.189Z,93565.25
2022-10-18T20:02:31.680Z,93566.25
2022-10-18T20:05:02.557Z,93563.06
2022-10-18T20:07:32.445Z,93570.81
2022-10-18T20:10:03.812Z,93566.69
2022-10-18T20:12:33.323Z,93564.47
2022-10-18T20:15:03.173Z,93565.13
2022-10-18T20:17:33.820Z,93559.94
2022-10-18T20:20:03.365Z,93565.31
2022-10-18T20:22:34.452Z,93555.16
2022-10-18T20:25:06.085Z,93555.13
2022-10-18T20:27:35.735Z,93551.91
2022-10-18T20:30:09.001Z,93553.75
2022-10-18T20:32:42.187Z,93548.41
2022-10-18T20:35:12.224Z,93547.34
2022-10-18T20:37:41.591Z,93549.41
2022-10-18T20:40:14.583Z,93540.28
2022-10-18T20:42:45.547Z,93540.47
2022-10-18T20:45:14.985Z,93543.25
2022-10-18T20:47:44.289Z,93531.97
2022-10-18T20:50:13.673Z,93539.84
2022-10-18T20:52:43.945Z,93530.16
2022-10-18T20:55:14.772Z,93522.47
2022-10-18T20:57:44.314Z,93520.31
2022-10-18T21:00:15.681Z,93524.72
2022-10-18T21:02:45.186Z,93517.06
2022-10-18T21:05:16.826Z,93514.84
2022-10-18T21:07:46.279Z,93520.84
2022-10-18T21:10:17.532Z,93514.59
2022-10-18T21:12:49.685Z,93515.66
2022-10-18T21:15:19.245Z,93498.75
2022-10-18T21:17:52.575Z,93497.97
2022-10-18T21:20:21.992Z,93505.72
2022-10-18T21:22:51.910Z,93486.91
2022-10-18T21:25:22.788Z,93479.88
2022-10-18T21:27:52.228Z,93485.88
2022-10-18T21:30:21.626Z,93482.47
2022-10-18T21:32:52.737Z,93477.47
2022-10-18T21:35:22.204Z,93477.41
2022-10-18T21:37:51.586Z,93471.56
2022-10-18T21:40:22.666Z,93465.00
2022-10-18T21:42:52.105Z,93466.84
2022-10-18T21:45:21.626Z,93457.28
2022-10-18T21:47:51.025Z,93454.97
2022-10-18T21:52:33.168Z,93436.16
2022-10-18T21:55:02.955Z,93431.91
2022-10-18T21:57:32.403Z,93429.50
2022-10-18T22:00:02.005Z,93438.28
2022-10-18T22:02:31.598Z,93429.81
2022-10-18T22:05:01.351Z,93424.56
2022-10-18T22:07:32.289Z,93420.38
2022-10-18T22:10:01.690Z,93419.38
2022-10-18T22:12:31.065Z,93421.09
2022-10-18T22:15:00.605Z,93415.25
2022-10-18T22:17:30.231Z,93418.94
2022-10-18T22:19:59.667Z,93416.41
2022-10-18T22:22:29.095Z,93409.69
2022-10-18T22:25:00.026Z,93402.91
2022-10-18T22:27:32.841Z,93401.88
2022-10-18T22:30:02.296Z,93391.66
2022-10-18T22:32:32.905Z,93390.84
2022-10-18T22:35:02.346Z,93381.41
2022-10-18T22:37:32.054Z,93384.00
2022-10-18T22:40:03.394Z,93376.19
2022-10-18T22:42:35.727Z,93375.16
2022-10-18T22:45:05.465Z,93364.84
2022-10-18T22:47:35.368Z,93366.78
2022-10-18T22:50:05.147Z,93367.06
2022-10-18T22:52:34.904Z,93355.19
2022-10-18T22:55:06.838Z,93356.88
2022-10-18T22:57:36.265Z,93349.91
2022-10-18T23:00:07.006Z,93345.69
2022-10-18T23:02:36.545Z,93344.16
2022-10-18T23:05:06.873Z,93347.56
2022-10-18T23:07:36.325Z,93340.72
2022-10-18T23:10:08.047Z,93340.06
2022-10-18T23:12:37.445Z,93332.22
2022-10-18T23:15:07.893Z,93330.56
2022-10-18T23:17:37.506Z,93335.03
2022-10-18T23:20:08.025Z,93332.28
2022-10-18T23:22:37.342Z,93323.75
2022-10-18T23:25:09.705Z,93322.25
2022-10-18T23:27:38.986Z,93317.03
2022-10-18T23:30:09.972Z,93317.28
2022-10-18T23:32:40.872Z,93306.13
2022-10-18T23:35:11.085Z,93307.69
2022-10-18T23:37:40.508Z,93294.97
2022-10-18T23:40:12.991Z,93300.25
2022-10-18T23:42:42.385Z,93294.09
2022-10-18T23:45:12.690Z,93290.03
2022-10-18T23:47:41.932Z,93286.50
2022-10-18T23:50:12.078Z,93286.50
2022-10-18T23:52:41.545Z,93280.72
2022-10-18T23:55:12.505Z,93276.47
2022-10-18T23:57:41.711Z,93274.63
